A80 TRACON Summary / KATL TAF
ATL TRACON Summary:
Expect VFR conditions under clear skies overnight. Surface winds will be from the southwest to south at 3-4kts and occasionally calm. Frost and related deicing operations are possible between 09-14z. Flight Hazards: None expected in the TRACON airspace.

Updated:11/28/2014 6:28 PM
ATL Terminal Aerodrome Forecast:

FTUS80 KATL 290536
KATL 290533Z 2906/3012 VRB03KT P6SM SKC
     FM291500 19005KT P6SM SKC
     FM291800 20008KT P6SM FEW040
     FM300000 19004KT P6SM SCT250
     FM300800 20005KT P6SM FEW020
ATL TRACON Area Remark:
FROST AND RELATED DE-ICING OPERATIONS POSSIBLE BETWEEN 09 TO 14Z.
Convective Gate Forecast / Icing Gate Forecast / Vertical Wind Profile (click on image to enlarge)
Convective Gate Forecast
Icing Gate Forecast

table with gate forecasts (convective and CCFP) used April - November while icing gate forecasts are issued

AIRMETs & SIGMETS/ Southeast Radar loop / Satellite Image (click on image to enlarge)

Southeast Radar Loop

 



USA.gov is the U.S. government's official web portal to all federal, state and local government web resources and services.